createdAt,value
2022-11-08T00:01:39.708Z,85.40
2022-11-08T00:04:10.675Z,85.30
2022-11-08T00:06:56.810Z,85.20
2022-11-08T00:09:42.862Z,85.00
2022-11-08T00:12:28.869Z,84.90
2022-11-08T00:14:58.877Z,84.70
2022-11-08T00:17:30.018Z,84.50
2022-11-08T00:19:58.563Z,84.50
2022-11-08T00:22:27.317Z,84.40
2022-11-08T00:24:55.556Z,84.10
2022-11-08T00:27:25.780Z,84.00
2022-11-08T00:29:54.374Z,84.00
2022-11-08T00:32:26.494Z,84.00
2022-11-08T00:34:55.373Z,84.00
2022-11-08T00:37:24.262Z,84.10
2022-11-08T00:39:52.517Z,84.10
2022-11-08T00:42:20.747Z,84.20
2022-11-08T00:44:49.061Z,84.10
2022-11-08T00:47:17.248Z,84.10
2022-11-08T00:49:46.834Z,84.00
2022-11-08T00:52:15.047Z,83.90
2022-11-08T00:54:43.319Z,83.90
2022-11-08T00:57:11.606Z,83.90
2022-11-08T00:59:39.859Z,84.00
2022-11-08T01:02:08.147Z,83.90
2022-11-08T01:04:36.489Z,83.90
2022-11-08T01:07:06.102Z,84.10
2022-11-08T01:09:34.339Z,84.10
2022-11-08T01:12:02.584Z,84.10
2022-11-08T01:14:30.841Z,84.20
2022-11-08T01:16:59.120Z,84.20
2022-11-08T01:19:27.359Z,84.20
2022-11-08T01:21:55.616Z,84.30
2022-11-08T01:24:25.211Z,84.20
2022-11-08T01:26:53.456Z,84.30
2022-11-08T01:29:21.703Z,84.40
2022-11-08T01:31:50.018Z,84.50
2022-11-08T01:34:18.196Z,84.50
2022-11-08T01:36:46.475Z,84.60
2022-11-08T01:39:15.214Z,84.70
2022-11-08T01:41:44.869Z,84.70
2022-11-08T01:44:18.677Z,84.70
2022-11-08T01:46:47.906Z,84.80
2022-11-08T01:49:32.945Z,84.90
2022-11-08T01:52:18.473Z,85.00
2022-11-08T01:54:58.221Z,85.00
2022-11-08T01:57:33.685Z,85.00
2022-11-08T02:00:07.004Z,85.00
2022-11-08T02:02:36.601Z,85.10
2022-11-08T02:05:24.683Z,85.10
2022-11-08T02:08:00.274Z,85.00
2022-11-08T02:10:35.490Z,85.10
2022-11-08T02:13:10.765Z,85.00
2022-11-08T02:15:41.782Z,85.50
2022-11-08T02:18:10.677Z,85.30
2022-11-08T02:20:39.130Z,85.60
2022-11-08T02:23:17.007Z,85.60
2022-11-08T02:25:46.599Z,85.50
2022-11-08T02:28:15.244Z,85.50
2022-11-08T02:30:43.993Z,85.60
2022-11-08T02:33:17.055Z,85.70
2022-11-08T02:35:48.926Z,85.60
2022-11-08T02:38:17.997Z,85.60
2022-11-08T02:40:49.478Z,85.60
2022-11-08T02:43:18.047Z,85.60
2022-11-08T02:45:46.756Z,85.50
2022-11-08T02:48:15.900Z,85.50
2022-11-08T02:50:44.599Z,85.60
2022-11-08T02:53:13.442Z,85.60
2022-11-08T02:55:41.712Z,85.50
2022-11-08T02:58:12.016Z,85.50
2022-11-08T03:00:41.347Z,85.50
2022-11-08T03:03:09.655Z,85.50
2022-11-08T03:05:37.945Z,85.40
2022-11-08T03:08:06.509Z,85.40
2022-11-08T03:10:34.759Z,85.40
2022-11-08T03:13:06.036Z,85.30
2022-11-08T03:15:35.801Z,85.20
2022-11-08T03:18:04.189Z,85.30
2022-11-08T03:20:33.370Z,85.20
2022-11-08T03:23:03.798Z,85.20
2022-11-08T03:25:32.323Z,85.20
2022-11-08T03:28:03.957Z,85.30
2022-11-08T03:30:32.408Z,85.30
2022-11-08T03:33:02.304Z,85.40
2022-11-08T03:35:30.783Z,85.50
2022-11-08T03:37:59.314Z,85.50
2022-11-08T03:40:29.074Z,85.40
2022-11-08T03:42:58.217Z,85.50
2022-11-08T03:45:26.553Z,85.50
2022-11-08T03:47:54.807Z,85.60
2022-11-08T03:50:24.571Z,85.50
2022-11-08T03:52:54.873Z,85.50
2022-11-08T03:55:25.899Z,85.60
2022-11-08T03:57:54.397Z,85.60
2022-11-08T04:00:25.280Z,85.40
2022-11-08T04:02:53.655Z,85.40
2022-11-08T04:05:23.429Z,85.40
2022-11-08T04:07:51.653Z,85.30
2022-11-08T04:10:20.253Z,85.20
2022-11-08T04:13:06.190Z,85.20
2022-11-08T04:15:34.417Z,85.20
2022-11-08T04:18:20.685Z,85.30
2022-11-08T04:21:08.073Z,85.30
2022-11-08T04:23:38.321Z,85.40
2022-11-08T04:26:11.659Z,85.50
2022-11-08T04:28:42.343Z,85.60
2022-11-08T04:31:14.026Z,85.60
2022-11-08T04:33:42.724Z,85.60
2022-11-08T04:36:16.606Z,85.60
2022-11-08T04:38:48.342Z,85.50
2022-11-08T04:41:18.325Z,85.60
2022-11-08T04:43:47.015Z,85.50
2022-11-08T04:46:18.621Z,85.60
2022-11-08T04:48:47.794Z,85.60
2022-11-08T04:51:19.959Z,85.60
2022-11-08T04:53:48.414Z,85.50
2022-11-08T04:56:19.951Z,85.50
2022-11-08T04:58:51.164Z,85.40
2022-11-08T05:01:22.076Z,85.50
2022-11-08T05:03:52.424Z,85.50
2022-11-08T05:06:25.077Z,85.60
2022-11-08T05:08:55.093Z,85.40
2022-11-08T05:11:25.614Z,85.30
2022-11-08T05:13:54.291Z,85.40
2022-11-08T05:16:25.036Z,85.30
2022-11-08T05:18:53.800Z,85.30
2022-11-08T05:21:45.111Z,85.40
2022-11-08T05:24:15.311Z,85.20
2022-11-08T05:26:46.504Z,85.10
2022-11-08T05:29:16.728Z,85.10
2022-11-08T05:31:45.277Z,85.10
2022-11-08T05:34:13.545Z,85.10
2022-11-08T05:36:43.219Z,85.10
2022-11-08T05:39:11.479Z,85.10
2022-11-08T05:41:39.706Z,85.10
2022-11-08T05:44:08.018Z,84.90
2022-11-08T05:46:36.337Z,84.80
2022-11-08T05:49:04.577Z,84.70
2022-11-08T05:51:33.470Z,84.60
2022-11-08T05:54:03.267Z,84.60
2022-11-08T05:56:31.505Z,84.50
2022-11-08T05:58:59.771Z,84.40
2022-11-08T06:01:28.125Z,84.40
2022-11-08T06:03:56.527Z,84.30
2022-11-08T06:06:24.882Z,84.20
2022-11-08T06:08:53.838Z,84.20
2022-11-08T06:11:27.440Z,84.20
2022-11-08T06:13:56.436Z,84.10
2022-11-08T06:16:26.913Z,84.00
2022-11-08T06:18:55.308Z,84.00
2022-11-08T06:21:23.958Z,84.10
2022-11-08T06:23:54.386Z,84.10
2022-11-08T06:26:24.419Z,84.00
2022-11-08T06:28:52.791Z,84.10
2022-11-08T06:31:21.141Z,84.00
2022-11-08T06:33:50.323Z,84.10
2022-11-08T06:36:18.632Z,84.10
2022-11-08T06:38:46.909Z,84.10
2022-11-08T06:41:20.252Z,84.10
2022-11-08T06:43:50.380Z,84.10
2022-11-08T06:46:18.657Z,84.10
2022-11-08T06:48:46.913Z,84.10
2022-11-08T06:51:15.915Z,84.20
2022-11-08T06:53:44.392Z,84.10
2022-11-08T06:56:13.091Z,84.10
2022-11-08T06:58:41.340Z,84.10
2022-11-08T07:01:13.398Z,84.00
2022-11-08T07:03:41.812Z,83.90
2022-11-08T07:06:10.595Z,83.80
2022-11-08T07:08:38.909Z,83.70
2022-11-08T07:11:07.733Z,83.70
2022-11-08T07:13:36.053Z,83.50
2022-11-08T07:16:04.586Z,83.60
2022-11-08T07:18:34.345Z,83.40
2022-11-08T07:21:03.808Z,83.30
2022-11-08T07:23:32.838Z,83.40
2022-11-08T07:26:04.488Z,83.20
2022-11-08T07:28:33.256Z,82.90
2022-11-08T07:31:05.013Z,83.10
2022-11-08T07:33:34.965Z,83.00
2022-11-08T07:36:03.770Z,82.80
2022-11-08T07:38:32.320Z,82.60
2022-11-08T07:41:02.022Z,82.60
2022-11-08T07:43:31.348Z,82.20
2022-11-08T07:46:01.902Z,82.10
2022-11-08T07:48:31.884Z,82.10
2022-11-08T07:51:01.495Z,82.00
2022-11-08T07:53:30.299Z,81.70
2022-11-08T07:55:58.577Z,81.40
2022-11-08T07:58:27.130Z,81.10
2022-11-08T08:00:55.347Z,81.10
2022-11-08T08:03:24.095Z,81.20
2022-11-08T08:06:00.496Z,80.80
2022-11-08T08:08:32.277Z,80.80
2022-11-08T08:11:01.838Z,81.00
2022-11-08T08:13:30.636Z,80.30
2022-11-08T08:16:00.901Z,80.50
2022-11-08T08:18:29.588Z,80.10
2022-11-08T08:20:58.216Z,79.90
2022-11-08T08:23:26.487Z,80.40
2022-11-08T08:25:56.234Z,79.80
2022-11-08T08:28:24.799Z,80.00
2022-11-08T08:30:53.047Z,80.00
2022-11-08T08:33:28.415Z,80.20
2022-11-08T08:35:56.938Z,80.10
2022-11-08T08:38:25.876Z,80.50
2022-11-08T08:40:55.541Z,80.10
2022-11-08T08:43:24.130Z,80.20
2022-11-08T08:45:52.561Z,80.20
2022-11-08T08:48:20.919Z,80.20
2022-11-08T08:50:49.487Z,80.10
2022-11-08T08:53:18.146Z,80.20
2022-11-08T08:55:48.070Z,80.10
2022-11-08T08:58:17.660Z,80.00
2022-11-08T09:03:36.060Z,80.20
2022-11-08T09:06:04.529Z,80.40
2022-11-08T09:08:32.803Z,80.00
2022-11-08T09:11:02.821Z,79.20
2022-11-08T09:13:32.551Z,78.80
2022-11-08T09:16:03.592Z,78.70
2022-11-08T09:18:32.535Z,78.60
2022-11-08T09:21:04.548Z,78.20
2022-11-08T09:23:33.353Z,78.40
2022-11-08T09:26:05.762Z,77.80
2022-11-08T09:28:36.968Z,77.60
2022-11-08T09:31:07.167Z,77.40
2022-11-08T09:33:35.482Z,77.10
2022-11-08T09:36:06.805Z,76.30
2022-11-08T09:38:35.488Z,76.30
2022-11-08T09:41:33.970Z,75.70
2022-11-08T09:44:19.245Z,75.70
2022-11-08T09:46:52.878Z,75.90
2022-11-08T09:49:28.577Z,75.00
2022-11-08T09:51:56.980Z,75.50
2022-11-08T09:54:31.608Z,74.50
2022-11-08T09:57:04.330Z,74.90
2022-11-08T09:59:41.176Z,74.40
2022-11-08T10:02:19.401Z,73.60
2022-11-08T10:04:53.743Z,73.80
2022-11-08T10:07:31.739Z,73.90
2022-11-08T10:10:25.435Z,73.60
2022-11-08T10:13:03.544Z,73.40
2022-11-08T10:15:43.664Z,73.50
2022-11-08T10:19:01.861Z,73.90
2022-11-08T10:21:53.032Z,72.60
2022-11-08T10:24:27.682Z,73.20
2022-11-08T10:26:58.981Z,73.00
2022-11-08T10:29:32.218Z,73.00
2022-11-08T10:32:14.074Z,72.10
2022-11-08T10:34:49.068Z,72.70
2022-11-08T10:37:19.202Z,72.60
2022-11-08T10:39:56.983Z,72.60
2022-11-08T10:42:37.617Z,71.50
2022-11-08T10:45:07.452Z,71.20
2022-11-08T10:47:38.896Z,70.30
2022-11-08T10:50:16.561Z,69.80
2022-11-08T10:52:49.773Z,69.70
2022-11-08T10:55:31.044Z,69.40
2022-11-08T10:57:59.435Z,70.00
2022-11-08T11:00:31.448Z,68.30
2022-11-08T11:03:03.371Z,68.80
2022-11-08T11:05:35.380Z,68.50
2022-11-08T11:08:19.022Z,68.20
2022-11-08T11:10:50.296Z,67.40
2022-11-08T11:13:34.883Z,68.00
2022-11-08T11:16:04.235Z,67.40
2022-11-08T11:18:36.291Z,66.70
2022-11-08T11:21:12.743Z,68.00
2022-11-08T11:23:44.798Z,67.60
2022-11-08T11:26:29.589Z,67.20
2022-11-08T11:29:21.448Z,67.30
2022-11-08T11:31:53.039Z,67.20
2022-11-08T11:34:34.635Z,66.80
2022-11-08T11:37:16.231Z,67.50
2022-11-08T11:39:55.362Z,66.60
2022-11-08T11:42:45.198Z,67.20
2022-11-08T11:45:21.149Z,66.90
2022-11-08T11:47:54.381Z,66.80
2022-11-08T11:50:31.933Z,67.20
2022-11-08T11:53:04.588Z,67.10
2022-11-08T11:55:50.353Z,67.40
2022-11-08T11:58:36.763Z,67.10
2022-11-08T12:01:17.063Z,67.00
2022-11-08T12:04:21.727Z,66.90
2022-11-08T12:07:05.031Z,66.40
2022-11-08T12:09:53.581Z,66.40
2022-11-08T12:12:36.321Z,64.50
2022-11-08T12:15:13.568Z,63.70
2022-11-08T12:18:02.589Z,64.80
2022-11-08T12:20:45.154Z,63.90
2022-11-08T12:23:36.001Z,64.10
2022-11-08T12:26:18.081Z,63.70
2022-11-08T12:29:20.135Z,64.00
2022-11-08T12:32:06.394Z,65.00
2022-11-08T12:34:46.769Z,64.20
2022-11-08T12:37:29.066Z,64.10
2022-11-08T12:40:02.603Z,63.80
2022-11-08T12:42:59.519Z,63.90
2022-11-08T12:45:49.727Z,65.20
2022-11-08T12:48:32.106Z,64.50
2022-11-08T12:51:09.010Z,64.80
2022-11-08T12:53:57.866Z,64.50
2022-11-08T12:56:36.194Z,64.60
2022-11-08T12:59:05.687Z,64.60
2022-11-08T13:01:34.049Z,64.40
2022-11-08T13:04:32.815Z,64.60
2022-11-08T13:07:09.997Z,64.70
2022-11-08T13:09:45.244Z,64.50
2022-11-08T13:12:30.087Z,64.40
2022-11-08T13:15:01.507Z,64.50
2022-11-08T13:17:31.480Z,63.90
2022-11-08T13:20:05.664Z,64.10
2022-11-08T13:22:47.798Z,64.30
2022-11-08T13:25:43.138Z,64.60
2022-11-08T13:28:39.568Z,64.20
2022-11-08T13:31:24.239Z,64.10
2022-11-08T13:34:42.457Z,63.40
2022-11-08T13:37:39.956Z,63.40
2022-11-08T13:40:26.929Z,63.40
2022-11-08T13:43:23.699Z,63.10
2022-11-08T13:45:54.126Z,62.80
2022-11-08T13:48:42.635Z,63.40
2022-11-08T13:51:26.850Z,63.20
2022-11-08T13:53:59.147Z,62.80
2022-11-08T13:56:50.944Z,63.40
2022-11-08T13:59:55.372Z,63.20
2022-11-08T14:02:43.480Z,63.40
2022-11-08T14:05:30.867Z,64.00
2022-11-08T14:08:23.187Z,63.80
2022-11-08T14:11:30.027Z,63.80
2022-11-08T14:14:28.877Z,64.10
2022-11-08T14:17:32.207Z,64.00
2022-11-08T14:20:28.397Z,64.00
2022-11-08T14:22:58.151Z,63.80
2022-11-08T14:25:31.555Z,64.20
2022-11-08T14:28:00.057Z,63.90
2022-11-08T14:30:28.469Z,64.50
2022-11-08T14:33:18.386Z,64.20
2022-11-08T14:35:57.423Z,64.20
2022-11-08T14:38:26.288Z,64.90
2022-11-08T14:40:57.333Z,65.60
2022-11-08T14:43:25.465Z,65.50
2022-11-08T14:45:54.272Z,65.40
2022-11-08T14:48:27.260Z,65.80
2022-11-08T14:51:01.887Z,66.10
2022-11-08T14:53:32.661Z,66.20
2022-11-08T14:56:13.732Z,66.40
2022-11-08T14:58:41.797Z,66.40
2022-11-08T15:01:12.351Z,66.60
2022-11-08T15:03:47.333Z,66.70
2022-11-08T15:06:17.470Z,66.40
2022-11-08T15:08:52.432Z,66.70
2022-11-08T15:11:30.999Z,67.00
2022-11-08T15:14:03.324Z,66.90
2022-11-08T15:16:41.642Z,67.00
2022-11-08T15:19:26.182Z,67.10
2022-11-08T15:21:55.820Z,67.20
2022-11-08T15:24:35.810Z,67.40
2022-11-08T15:27:15.856Z,67.50
2022-11-08T15:29:53.518Z,67.50
2022-11-08T15:32:23.717Z,67.50
2022-11-08T15:34:56.092Z,67.80
2022-11-08T15:37:34.973Z,67.80
2022-11-08T15:40:04.810Z,68.10
2022-11-08T15:42:34.649Z,68.30
2022-11-08T15:45:06.651Z,68.30
2022-11-08T15:47:46.149Z,68.20
2022-11-08T15:50:18.808Z,68.50
2022-11-08T15:52:50.294Z,68.90
2022-11-08T15:55:22.506Z,69.00
2022-11-08T15:57:51.847Z,69.10
2022-11-08T16:00:24.154Z,69.00
2022-11-08T16:02:53.629Z,69.00
2022-11-08T16:05:25.118Z,69.00
2022-11-08T16:07:55.642Z,69.40
2022-11-08T16:10:30.845Z,69.30
2022-11-08T16:13:01.104Z,69.30
2022-11-08T16:15:32.774Z,69.30
2022-11-08T16:18:01.594Z,69.10
2022-11-08T16:20:32.976Z,69.20
2022-11-08T16:23:05.740Z,69.20
2022-11-08T16:25:38.360Z,69.20
2022-11-08T16:28:19.696Z,69.10
2022-11-08T16:30:48.598Z,69.00
2022-11-08T16:33:21.424Z,69.40
2022-11-08T16:35:50.417Z,69.50
2022-11-08T16:38:25.502Z,69.20
2022-11-08T16:40:54.109Z,69.50
2022-11-08T16:43:22.458Z,69.30
2022-11-08T16:46:04.792Z,69.40
2022-11-08T16:48:36.022Z,69.30
2022-11-08T16:51:07.509Z,69.30
2022-11-08T16:53:37.896Z,69.50
2022-11-08T16:56:06.270Z,69.30
2022-11-08T16:58:34.519Z,69.40
2022-11-08T17:01:10.048Z,69.00
2022-11-08T17:03:38.848Z,68.80
2022-11-08T17:06:07.967Z,68.90
2022-11-08T17:08:37.951Z,69.10
2022-11-08T17:11:06.283Z,69.30
2022-11-08T17:13:40.086Z,69.40
2022-11-08T17:16:11.484Z,69.50
2022-11-08T17:18:39.937Z,69.50
2022-11-08T17:21:37.903Z,69.40
2022-11-08T17:23:59.231Z,69.50
2022-11-08T17:26:27.970Z,69.70
2022-11-08T17:28:57.332Z,69.70
2022-11-08T17:31:25.625Z,69.80
2022-11-08T17:33:55.985Z,69.90
2022-11-08T17:36:24.639Z,70.00
2022-11-08T17:38:53.330Z,70.30
2022-11-08T17:41:23.013Z,70.30
2022-11-08T17:43:51.535Z,70.20
2022-11-08T17:46:19.778Z,70.40
2022-11-08T17:48:48.140Z,70.60
2022-11-08T17:51:16.646Z,70.70
2022-11-08T17:53:45.168Z,70.90
2022-11-08T17:56:13.819Z,71.10
2022-11-08T17:58:43.714Z,71.10
2022-11-08T18:01:12.197Z,71.00
2022-11-08T18:03:40.741Z,70.80
2022-11-08T18:06:12.412Z,70.90
2022-11-08T18:08:40.740Z,70.90
2022-11-08T18:11:09.413Z,71.00
2022-11-08T18:13:37.825Z,71.20
2022-11-08T18:16:13.187Z,71.20
2022-11-08T18:18:42.472Z,71.00
2022-11-08T18:21:11.398Z,71.10
2022-11-08T18:23:41.957Z,71.10
2022-11-08T18:26:10.794Z,71.20
2022-11-08T18:28:39.274Z,71.10
2022-11-08T18:31:08.698Z,71.10
2022-11-08T18:33:39.379Z,71.30
2022-11-08T18:36:09.909Z,71.30
2022-11-08T18:38:40.501Z,71.60
2022-11-08T18:41:09.530Z,71.50
2022-11-08T18:43:37.809Z,71.30
2022-11-08T18:46:08.069Z,71.40
2022-11-08T18:48:38.696Z,71.30
2022-11-08T18:51:10.568Z,71.40
2022-11-08T18:53:39.099Z,71.60
2022-11-08T18:56:08.701Z,71.80
2022-11-08T18:58:37.446Z,72.00
2022-11-08T19:01:06.830Z,72.20
2022-11-08T19:03:35.610Z,72.30
2022-11-08T19:06:06.709Z,72.40
2022-11-08T19:08:36.865Z,72.60
2022-11-08T19:11:08.936Z,72.80
2022-11-08T19:13:39.768Z,72.90
2022-11-08T19:16:11.978Z,73.10
2022-11-08T19:18:42.681Z,73.20
2022-11-08T19:21:16.997Z,73.40
2022-11-08T19:23:45.932Z,73.60
2022-11-08T19:26:16.524Z,73.70
2022-11-08T19:28:46.507Z,73.80
2022-11-08T19:31:16.617Z,74.00
2022-11-08T19:33:45.086Z,74.10
2022-11-08T19:36:18.306Z,74.20
2022-11-08T19:38:47.394Z,74.40
2022-11-08T19:41:19.555Z,74.50
2022-11-08T19:43:48.982Z,74.50
2022-11-08T19:46:19.450Z,74.50
2022-11-08T19:48:49.771Z,74.50
2022-11-08T19:51:22.043Z,74.60
2022-11-08T19:53:50.775Z,74.70
2022-11-08T19:56:29.174Z,74.80
2022-11-08T19:59:06.782Z,74.90
2022-11-08T20:01:39.834Z,74.90
2022-11-08T20:04:10.686Z,74.90
2022-11-08T20:06:40.800Z,74.80
2022-11-08T20:09:10.386Z,74.80
2022-11-08T20:11:41.360Z,74.60
2022-11-08T20:14:14.762Z,74.50
2022-11-08T20:16:49.209Z,74.40
2022-11-08T20:19:19.311Z,74.50
2022-11-08T20:21:49.299Z,74.50
2022-11-08T20:24:18.917Z,74.40
2022-11-08T20:26:47.508Z,74.30
2022-11-08T20:29:16.104Z,74.10
2022-11-08T20:31:44.456Z,73.80
2022-11-08T20:34:13.467Z,73.80
2022-11-08T20:36:44.174Z,73.80
2022-11-08T20:39:16.022Z,73.70
2022-11-08T20:41:44.669Z,73.70
2022-11-08T20:44:13.434Z,73.80
2022-11-08T20:46:42.143Z,73.90
2022-11-08T20:49:10.808Z,74.10
2022-11-08T20:51:39.393Z,74.10
2022-11-08T20:54:07.840Z,73.80
2022-11-08T20:56:37.732Z,73.90
2022-11-08T20:59:06.232Z,73.70
2022-11-08T21:01:35.881Z,73.60
2022-11-08T21:04:04.313Z,73.70
2022-11-08T21:06:35.885Z,73.90
2022-11-08T21:11:55.875Z,74.20
2022-11-08T21:14:24.872Z,74.40
2022-11-08T21:17:20.243Z,74.40
2022-11-08T21:19:42.243Z,74.50
2022-11-08T21:22:16.435Z,74.60
2022-11-08T21:24:46.463Z,74.60
2022-11-08T21:27:17.007Z,74.70
2022-11-08T21:29:45.378Z,74.80
2022-11-08T21:32:13.742Z,74.80
2022-11-08T21:34:45.782Z,75.10
2022-11-08T21:37:15.242Z,75.00
2022-11-08T21:39:43.623Z,75.00
2022-11-08T21:42:12.076Z,75.30
2022-11-08T21:44:41.754Z,75.60
2022-11-08T21:47:10.800Z,75.60
2022-11-08T21:49:39.146Z,75.80
2022-11-08T21:52:07.611Z,76.10
2022-11-08T21:54:36.397Z,76.30
2022-11-08T21:57:04.761Z,76.40
2022-11-08T21:59:33.095Z,76.40
2022-11-08T22:02:02.901Z,76.50
2022-11-08T22:04:31.560Z,76.70
2022-11-08T22:06:59.891Z,76.90
2022-11-08T22:09:28.510Z,77.00
2022-11-08T22:11:56.993Z,77.10
2022-11-08T22:14:25.324Z,77.20
2022-11-08T22:16:53.660Z,77.20
2022-11-08T22:19:23.331Z,77.40
2022-11-08T22:21:51.691Z,77.60
2022-11-08T22:24:21.253Z,77.70
2022-11-08T22:26:52.212Z,77.80
2022-11-08T22:29:20.815Z,77.80
2022-11-08T22:31:49.563Z,77.80
2022-11-08T22:34:17.973Z,77.90
2022-11-08T22:36:47.827Z,78.00
2022-11-08T22:39:17.836Z,78.10
2022-11-08T22:41:47.813Z,78.10
2022-11-08T22:44:16.900Z,78.10
2022-11-08T22:46:46.822Z,78.10
2022-11-08T22:49:16.990Z,78.20
2022-11-08T22:51:47.251Z,78.30
2022-11-08T22:54:15.638Z,78.30
2022-11-08T22:56:44.024Z,78.50
2022-11-08T22:59:13.006Z,78.50
2022-11-08T23:01:41.336Z,78.60
2022-11-08T23:04:11.326Z,78.80
2022-11-08T23:06:40.730Z,78.80
2022-11-08T23:09:10.883Z,78.80
2022-11-08T23:11:56.732Z,78.90
2022-11-08T23:14:42.470Z,78.90
2022-11-08T23:17:10.755Z,78.90
2022-11-08T23:19:56.269Z,78.70
2022-11-08T23:22:42.320Z,78.60
2022-11-08T23:25:12.307Z,78.60
2022-11-08T23:27:57.874Z,78.40
2022-11-08T23:30:43.391Z,78.50
2022-11-08T23:33:11.816Z,78.40
2022-11-08T23:36:00.892Z,78.50
2022-11-08T23:38:29.941Z,78.60
2022-11-08T23:41:18.901Z,78.60
2022-11-08T23:44:04.918Z,78.70
2022-11-08T23:46:33.658Z,78.80
2022-11-08T23:49:03.003Z,78.90
2022-11-08T23:51:31.715Z,79.00
2022-11-08T23:54:00.099Z,79.10
2022-11-08T23:56:30.316Z,79.10
2022-11-08T23:59:01.259Z,79.20
